Terminal Aerodrome Forecast
Issued by NWS Charleston, WV

Current Version | Previous Version | Text Only | Print | Product List | Glossary On
Versions: 1 2 3 4 5 6 7 8 9 10 11 12 13 14 15 16 17 18 19
000
FTUS41 KRLX 211700
TAFCRW
TAF
KCRW 211721Z 2118/2218 VRB05KT P6SM SKC
     FM221500 18004KT P6SM SCT050
     FM221700 19005KT P6SM BKN060=

USA.gov is the U.S. government's official web portal to all federal, state and local government web resources and services.